Accueil
METAR-TAF:

METAR-TAF

Aéroports :

Aéroport de Londres-Luton

Luton, Angleterre

latitude: 51-52N, longitude: 000-22W, altitude: 160 m

Observation

Le bulletin a été fait il y a 13 minutes, à 02:50 UTC
Vent 9 kt de ouest
Température 13°C
Humidité 82%
Pression 1017 hPa
Visibilité 10 km ou plus

METAR: EGGW 170250Z AUTO 28009KT 9999 NCD 13/10 Q1017

Heure: 04:03 (03:03 UTC)

Prévision

Le bulletin a été fait il y a 4 heures et 9 minutes, à 22:54 UTC
Prévision valable du 17 à 00 UTC au 17 à 24 UTC
Vent 5 kt de ouest
Visibilité 10 km ou plus
Quelques nuages à une hauteur de 4500 ft

TAF: EGGW 162254Z 1700/1724 27005KT 9999 FEW045

Observations et prévisions météorologiques de plus de 4000 aéroports (messages METAR et TAF).

Les stations disponibles sont représentées par des disques jaunes et rouges sur la carte.

Passer la souris dessus pour voir le nom de la station.

Cliquer dessus pour voir les observations et prévisions météorologiques.

Pour changer de carte: cliquez sur les boutons verts avec une croix noire pour zoomer, sur le bouton vert avec un tiret pour effectuer un zoom arrière, ou sur les flèches vertes pour les cartes adjacentes.


METAR-TAF: